Time;durP1;ratioP1;P1;durP2;ratioP2;P2;SDS_P1;SDS_P2;PMS_P1;PMS_P2;Temp;Humidity;BMP_temperature;BMP_pressure;BME280_temperature;BME280_humidity;BME280_pressure;Samples;Min_cycle;Max_cycle;Signal;HPM_P1;HPM_P2
2021/08/31 00:00:53;;;;;;;6.58;5.97;;;;;;;14.65;86.27;100230.39;1727294;82;21161;-77
2021/08/31 00:03:20;;;;;;;7.60;5.80;;;;;;;14.62;86.31;100230.80;1719651;82;20920;-76
2021/08/31 00:05:46;;;;;;;6.75;5.70;;;;;;;14.60;86.34;100232.88;1716607;83;21040;-77
2021/08/31 00:08:12;;;;;;;7.58;6.28;;;;;;;14.55;86.37;100229.94;1698949;84;21055;-77
2021/08/31 00:10:38;;;;;;;10.45;7.05;;;;;;;14.54;86.41;100232.30;1697619;84;21126;-77
2021/08/31 00:13:04;;;;;;;7.87;6.37;;;;;;;14.52;86.43;100226.31;1702287;83;21179;-77
2021/08/31 00:15:32;;;;;;;7.55;6.75;;;;;;;14.49;86.42;100227.02;1727748;83;21520;-77
2021/08/31 00:18:00;;;;;;;7.60;6.25;;;;;;;14.49;86.47;100236.41;1715795;83;21071;-77
2021/08/31 00:20:27;;;;;;;10.28;6.83;;;;;;;14.49;86.50;100228.90;1726546;83;20993;-77
2021/08/31 00:22:53;;;;;;;9.35;7.20;;;;;;;14.49;86.50;100233.72;1714275;83;21115;-78
2021/08/31 00:25:19;;;;;;;7.42;6.45;;;;;;;14.48;86.53;100236.11;1713717;83;21020;-77
2021/08/31 00:27:45;;;;;;;9.88;7.28;;;;;;;14.48;86.55;100233.94;1725975;82;21393;-77
2021/08/31 00:30:12;;;;;;;11.48;7.33;;;;;;;14.47;86.56;100239.81;1706934;83;21072;-77
2021/08/31 00:32:38;;;;;;;11.30;7.70;;;;;;;14.47;86.56;100238.47;1706889;83;21009;-78
2021/08/31 00:35:05;;;;;;;9.45;7.75;;;;;;;14.49;86.59;100237.75;1709488;82;21095;-78
2021/08/31 00:37:31;;;;;;;12.47;9.00;;;;;;;14.49;86.62;100235.06;1740234;82;21162;-77
2021/08/31 00:39:57;;;;;;;8.93;8.00;;;;;;;14.50;86.64;100239.41;1729484;82;21000;-77
2021/08/31 00:42:23;;;;;;;10.13;8.05;;;;;;;14.50;86.67;100244.78;1715526;82;21035;-77
2021/08/31 00:44:49;;;;;;;16.55;9.13;;;;;;;14.50;86.68;100242.09;1714898;83;21030;-78
2021/08/31 00:47:15;;;;;;;10.88;8.83;;;;;;;14.52;86.69;100246.45;1686894;84;21477;-78
2021/08/31 00:49:41;;;;;;;9.70;8.53;;;;;;;14.52;86.73;100247.79;1715492;83;21136;-77
2021/08/31 00:52:08;;;;;;;9.48;8.08;;;;;;;14.51;86.74;100250.98;1686073;84;21088;-77
2021/08/31 00:54:34;;;;;;;11.43;7.67;;;;;;;14.50;86.75;100252.83;1698613;84;20988;-78
2021/08/31 00:57:01;;;;;;;11.50;9.10;;;;;;;14.48;86.76;100251.38;1710858;83;21044;-78
2021/08/31 00:59:27;;;;;;;9.78;8.73;;;;;;;14.46;86.80;100250.23;1711008;83;21092;-78
2021/08/31 01:01:53;;;;;;;13.83;8.15;;;;;;;14.47;86.81;100249.72;1710889;83;21119;-78
2021/08/31 01:04:25;;;;;;;11.38;8.90;;;;;;;14.44;86.83;100241.56;1710889;83;21066;-78
2021/08/31 01:06:52;;;;;;;10.50;7.90;;;;;;;14.46;86.85;100246.74;1703521;84;21043;-78
2021/08/31 01:09:20;;;;;;;11.85;8.50;;;;;;;14.44;86.87;100249.61;1716784;82;21107;-79
2021/08/31 01:11:47;;;;;;;15.03;9.33;;;;;;;14.43;86.88;100254.66;1715438;82;21583;-78
2021/08/31 01:14:13;;;;;;;10.25;8.45;;;;;;;14.43;86.89;100249.80;1718388;82;21776;-79
2021/08/31 01:16:39;;;;;;;13.70;9.03;;;;;;;14.39;86.91;100248.02;1708116;82;20904;-78
2021/08/31 01:19:05;;;;;;;11.30;9.08;;;;;;;14.39;86.92;100244.53;1725013;82;21680;-78
2021/08/31 01:21:31;;;;;;;11.55;9.08;;;;;;;14.38;86.94;100253.09;1725826;82;21050;-78
2021/08/31 01:23:57;;;;;;;11.73;9.85;;;;;;;14.38;86.95;100250.92;1713318;83;21039;-79
2021/08/31 01:26:24;;;;;;;12.93;8.48;;;;;;;14.39;86.97;100249.91;1713678;83;21587;-78
2021/08/31 01:28:50;;;;;;;12.55;9.30;;;;;;;14.36;86.97;100251.11;1712910;83;21025;-78
2021/08/31 01:31:16;;;;;;;12.78;8.75;;;;;;;14.34;87.01;100254.52;1725457;82;21090;-78
2021/08/31 01:33:42;;;;;;;12.82;9.68;;;;;;;14.33;87.02;100250.13;1727842;82;20896;-79
2021/08/31 01:36:21;;;;;;;10.58;8.28;;;;;;;14.33;87.03;100247.95;1701570;82;21117;-78
2021/08/31 01:38:55;;;;;;;15.43;8.95;;;;;;;14.31;87.07;100250.02;1725824;82;21189;-78
2021/08/31 01:41:22;;;;;;;14.85;8.98;;;;;;;14.29;87.06;100246.18;1726155;82;21527;-79
2021/08/31 01:43:49;;;;;;;17.02;9.65;;;;;;;14.28;87.08;100240.52;1725798;82;21138;-79
2021/08/31 01:46:15;;;;;;;12.50;8.88;;;;;;;14.28;87.10;100245.89;1726284;82;21037;-79
2021/08/31 01:48:41;;;;;;;11.57;7.95;;;;;;;14.26;87.10;100245.23;1726869;82;21646;-78
2021/08/31 01:51:07;;;;;;;12.23;8.95;;;;;;;14.26;87.14;100242.56;1726594;82;21200;-78
2021/08/31 01:53:35;;;;;;;14.63;9.15;;;;;;;14.25;87.14;100238.75;1729352;82;21627;-78
2021/08/31 01:56:01;;;;;;;11.25;9.53;;;;;;;14.25;87.17;100240.89;1684247;85;21024;-78
2021/08/31 01:58:27;;;;;;;14.30;9.18;;;;;;;14.24;87.18;100240.59;1682058;84;22235;-78
2021/08/31 02:00:53;;;;;;;13.43;9.40;;;;;;;14.25;87.20;100247.59;1713961;83;21114;-78
2021/08/31 02:03:19;;;;;;;11.68;8.90;;;;;;;14.24;87.21;100245.97;1706029;83;21208;-78
2021/08/31 02:05:45;;;;;;;12.37;9.08;;;;;;;14.23;87.23;100240.27;1699941;83;21056;-78
2021/08/31 02:08:11;;;;;;;11.35;9.48;;;;;;;14.24;87.27;100241.94;1719342;83;21451;-78
2021/08/31 02:10:37;;;;;;;13.60;9.08;;;;;;;14.23;87.29;100237.59;1715033;82;20984;-78
2021/08/31 02:13:04;;;;;;;11.83;9.18;;;;;;;14.23;87.30;100234.08;1713208;83;21035;-78
2021/08/31 02:15:30;;;;;;;13.10;9.30;;;;;;;14.23;87.32;100237.59;1714946;83;21193;-79
2021/08/31 02:17:56;;;;;;;12.45;9.85;;;;;;;14.22;87.33;100235.92;1713393;83;21036;-79
2021/08/31 02:20:21;;;;;;;12.33;10.30;;;;;;;14.23;87.36;100233.56;1725383;83;20999;-79
2021/08/31 02:22:48;;;;;;;13.03;10.32;;;;;;;14.22;87.38;100231.91;1719732;83;21020;-79
2021/08/31 02:25:14;;;;;;;11.90;9.90;;;;;;;14.22;87.41;100234.58;1699258;83;21536;-78
2021/08/31 02:27:39;;;;;;;12.98;10.15;;;;;;;14.23;87.41;100236.77;1724018;83;22121;-78
2021/08/31 02:30:06;;;;;;;14.35;10.40;;;;;;;14.22;87.42;100229.73;1719128;83;21736;-78
2021/08/31 02:32:32;;;;;;;13.28;10.53;;;;;;;14.22;87.45;100226.53;1740087;82;21027;-78
2021/08/31 02:34:58;;;;;;;15.03;10.93;;;;;;;14.22;87.47;100227.88;1719411;82;21493;-78
2021/08/31 02:37:24;;;;;;;15.45;10.85;;;;;;;14.21;87.51;100226.25;1734670;82;21070;-78
2021/08/31 02:39:50;;;;;;;14.80;10.13;;;;;;;14.21;87.52;100226.25;1727779;82;21166;-78
2021/08/31 02:42:16;;;;;;;14.47;10.10;;;;;;;14.22;87.52;100229.22;1721571;82;20992;-78
2021/08/31 02:44:42;;;;;;;12.40;10.05;;;;;;;14.20;87.54;100227.27;1718198;82;21348;-78
2021/08/31 02:47:09;;;;;;;11.05;8.45;;;;;;;14.21;87.56;100218.20;1698457;83;21013;-77
2021/08/31 02:49:35;;;;;;;13.75;10.15;;;;;;;14.20;87.57;100228.61;1686840;85;20984;-77
2021/08/31 02:52:01;;;;;;;10.28;8.78;;;;;;;14.21;87.61;100228.09;1688890;83;21703;-77
2021/08/31 02:54:27;;;;;;;11.85;9.50;;;;;;;14.19;87.61;100228.28;1713413;83;21033;-77
2021/08/31 02:56:53;;;;;;;13.98;9.75;;;;;;;14.19;87.63;100220.23;1715216;83;20994;-77
2021/08/31 02:59:18;;;;;;;17.30;10.82;;;;;;;14.19;87.66;100224.77;1687428;83;20874;-77
2021/08/31 03:04:22;;;;;;;16.87;9.83;;;;;;;14.19;87.69;100221.58;1696440;84;21645;-78
2021/08/31 03:06:48;;;;;;;14.47;10.10;;;;;;;14.20;87.74;100226.42;1696550;83;21069;-78
2021/08/31 03:09:14;;;;;;;11.38;8.58;;;;;;;14.19;87.75;100222.91;1698073;83;21018;-78
2021/08/31 03:11:40;;;;;;;9.95;8.55;;;;;;;14.19;87.77;100221.58;1724598;83;20994;-77
2021/08/31 03:14:06;;;;;;;10.45;8.73;;;;;;;14.18;87.79;100226.61;1723457;83;20962;-78
2021/08/31 03:16:32;;;;;;;9.90;8.55;;;;;;;14.15;87.81;100224.33;1716602;83;21869;-78
2021/08/31 03:18:58;;;;;;;11.53;8.03;;;;;;;14.15;87.83;100222.98;1695782;84;21090;-78
2021/08/31 03:21:24;;;;;;;13.95;8.78;;;;;;;14.14;87.84;100221.36;1697236;83;20915;-78
2021/08/31 03:23:50;;;;;;;11.20;8.33;;;;;;;14.13;87.87;100222.38;1708650;83;21089;-79
2021/08/31 03:26:16;;;;;;;10.70;8.05;;;;;;;14.14;87.88;100224.55;1713709;82;21081;-79
2021/08/31 03:28:42;;;;;;;9.63;8.38;;;;;;;14.13;87.90;100222.38;1704315;83;21190;-79
2021/08/31 03:31:08;;;;;;;11.22;8.38;;;;;;;14.13;87.92;100223.71;1712997;83;21506;-79
2021/08/31 03:33:34;;;;;;;11.78;8.08;;;;;;;14.13;87.94;100225.05;1721244;83;21026;-78
2021/08/31 03:36:00;;;;;;;10.45;8.10;;;;;;;14.12;87.97;100222.05;1699427;83;21021;-78
2021/08/31 03:38:26;;;;;;;11.30;7.83;;;;;;;14.14;87.98;100217.84;1701706;84;21010;-78
2021/08/31 03:40:52;;;;;;;9.78;7.40;;;;;;;14.14;87.98;100222.70;1703457;83;22050;-78
2021/08/31 03:43:18;;;;;;;10.68;8.05;;;;;;;14.13;88.04;100226.39;1684223;84;21038;-78
2021/08/31 03:45:44;;;;;;;9.60;8.33;;;;;;;14.13;88.05;100220.20;1713275;83;20969;-78
2021/08/31 03:48:10;;;;;;;11.68;8.23;;;;;;;14.14;88.06;100220.52;1678611;84;21011;-78
2021/08/31 03:50:36;;;;;;;9.78;7.92;;;;;;;14.14;88.07;100233.42;1718625;83;20904;-78
2021/08/31 03:53:02;;;;;;;10.45;8.55;;;;;;;14.14;88.12;100236.11;1730731;82;21207;-78
2021/08/31 03:55:28;;;;;;;9.65;7.75;;;;;;;14.15;88.13;100233.72;1723848;82;21002;-78
2021/08/31 03:57:54;;;;;;;9.15;7.60;;;;;;;14.16;88.18;100231.36;1745344;82;20995;-78
2021/08/31 04:00:20;;;;;;;12.40;8.25;;;;;;;14.17;88.18;100233.53;1704913;82;21002;-77
2021/08/31 04:02:46;;;;;;;8.85;7.30;;;;;;;14.16;88.20;100230.53;1699556;83;21047;-78
2021/08/31 04:05:12;;;;;;;10.88;7.55;;;;;;;14.17;88.22;100230.34;1708878;83;21178;-78
2021/08/31 04:07:38;;;;;;;9.45;7.42;;;;;;;14.16;88.22;100228.67;1732075;82;21028;-78
2021/08/31 04:10:06;;;;;;;11.97;7.72;;;;;;;14.17;88.25;100238.39;1715543;82;21036;-77
2021/08/31 04:12:32;;;;;;;9.93;8.60;;;;;;;14.18;88.28;100231.98;1713434;82;21015;-77
2021/08/31 04:14:58;;;;;;;24.10;18.32;;;;;;;14.18;88.29;100230.64;1673309;85;21538;-77
2021/08/31 04:17:24;;;;;;;30.60;20.75;;;;;;;14.18;88.31;100239.22;1699645;83;21224;-77
2021/08/31 04:19:50;;;;;;;24.90;18.10;;;;;;;14.18;88.34;100233.31;1683788;84;21594;-77
2021/08/31 04:22:16;;;;;;;16.05;11.68;;;;;;;14.19;88.35;100239.52;1713383;83;20965;-77
2021/08/31 04:24:42;;;;;;;12.55;10.72;;;;;;;14.18;88.35;100233.31;1706277;83;21009;-77
2021/08/31 04:27:08;;;;;;;10.53;7.87;;;;;;;14.19;88.36;100233.64;1685064;84;21090;-77
2021/08/31 04:29:34;;;;;;;8.70;7.00;;;;;;;14.20;88.39;100227.27;1710326;83;21123;-77
2021/08/31 04:32:00;;;;;;;12.93;9.80;;;;;;;14.20;88.40;100227.27;1714382;82;20952;-77
2021/08/31 04:34:26;;;;;;;9.78;7.70;;;;;;;14.22;88.42;100229.73;1725728;82;21063;-77
2021/08/31 04:36:52;;;;;;;12.20;8.10;;;;;;;14.22;88.42;100232.41;1723723;82;21020;-77
2021/08/31 04:39:18;;;;;;;9.68;8.20;;;;;;;14.22;88.45;100231.91;1726157;82;20979;-77
2021/08/31 04:41:44;;;;;;;13.35;11.95;;;;;;;14.23;88.45;100231.39;1732275;82;21067;-77
2021/08/31 04:44:10;;;;;;;10.10;9.10;;;;;;;14.24;88.46;100234.41;1700620;83;20905;-77
2021/08/31 04:46:36;;;;;;;10.98;9.58;;;;;;;14.24;88.48;100239.25;1672981;84;20928;-77
2021/08/31 04:49:02;;;;;;;10.30;9.03;;;;;;;14.25;88.48;100238.20;1706217;83;21084;-78
2021/08/31 04:51:28;;;;;;;9.40;8.40;;;;;;;14.26;88.51;100236.36;1680618;85;21009;-77
2021/08/31 04:53:54;;;;;;;8.18;7.05;;;;;;;14.26;88.51;100237.70;1683034;84;21776;-77
2021/08/31 04:56:20;;;;;;;10.80;8.70;;;;;;;14.27;88.50;100244.22;1711287;83;21053;-77
2021/08/31 04:58:46;;;;;;;8.80;7.08;;;;;;;14.29;88.55;100234.11;1684527;85;20917;-76
2021/08/31 05:01:12;;;;;;;9.58;7.92;;;;;;;14.31;88.56;100242.81;1681570;85;20931;-76
2021/08/31 05:03:38;;;;;;;12.23;8.83;;;;;;;14.32;88.57;100245.78;1668243;84;21122;-77
2021/08/31 05:06:04;;;;;;;14.55;8.95;;;;;;;14.34;88.58;100246.97;1707849;83;21128;-77
2021/08/31 05:08:30;;;;;;;10.55;7.65;;;;;;;14.36;88.60;100241.72;1683653;82;20937;-77
2021/08/31 05:10:56;;;;;;;8.90;7.72;;;;;;;14.37;88.61;100242.04;1734269;82;21010;-77
2021/08/31 05:13:22;;;;;;;9.90;7.12;;;;;;;14.38;88.62;100248.23;1722894;83;20847;-77
2021/08/31 05:15:48;;;;;;;10.18;7.70;;;;;;;14.39;88.62;100248.02;1733673;82;21017;-77
2021/08/31 05:18:14;;;;;;;8.28;7.12;;;;;;;14.39;88.62;100244.53;1687173;84;21176;-77
2021/08/31 05:20:40;;;;;;;10.72;9.60;;;;;;;14.38;88.63;100249.06;1698658;84;20994;-77
2021/08/31 05:23:06;;;;;;;12.98;9.00;;;;;;;14.40;88.64;100255.05;1716353;82;21530;-77
2021/08/31 05:25:32;;;;;;;10.70;8.80;;;;;;;14.42;88.65;100254.88;1717209;83;20974;-77
2021/08/31 05:27:58;;;;;;;11.95;9.23;;;;;;;14.43;88.66;100260.02;1734930;82;21034;-77
2021/08/31 05:30:24;;;;;;;10.18;8.35;;;;;;;14.44;88.67;100256.31;1718737;83;21154;-77
2021/08/31 05:32:50;;;;;;;12.20;8.88;;;;;;;14.44;88.69;100256.31;1705345;83;20947;-77
2021/08/31 05:35:16;;;;;;;11.33;8.55;;;;;;;14.45;88.67;100254.47;1732420;82;21065;-77
2021/08/31 05:37:42;;;;;;;10.70;7.95;;;;;;;14.45;88.68;100260.67;1698217;84;21531;-78
2021/08/31 05:40:09;;;;;;;10.85;8.40;;;;;;;14.46;88.68;100260.95;1718469;82;21019;-77
2021/08/31 05:42:35;;;;;;;12.15;9.20;;;;;;;14.47;88.71;100259.94;1715580;83;21152;-77
2021/08/31 05:45:01;;;;;;;8.78;6.72;;;;;;;14.47;88.72;100265.31;1728968;82;21034;-78
2021/08/31 05:47:27;;;;;;;10.90;7.45;;;;;;;14.46;88.71;100266.33;1706048;83;21097;-77
2021/08/31 05:49:53;;;;;;;9.33;7.25;;;;;;;14.44;88.71;100265.71;1706354;82;21054;-77
2021/08/31 05:52:19;;;;;;;10.98;7.47;;;;;;;14.46;88.73;100275.72;1720861;83;21043;-77
2021/08/31 05:54:45;;;;;;;17.37;12.13;;;;;;;14.45;88.75;100264.69;1725741;82;21057;-77
2021/08/31 05:57:11;;;;;;;12.15;8.73;;;;;;;14.46;88.76;100269.01;1718033;83;21030;-77
2021/08/31 05:59:39;;;;;;;201.10;101.70;;;;;;;14.46;88.75;100277.06;1729304;82;21056;-77
2021/08/31 06:02:09;;;;;;;34.83;21.27;;;;;;;14.47;88.79;100273.36;1707602;83;21012;-77
2021/08/31 06:04:39;;;;;;;41.68;33.30;;;;;;;14.48;88.79;100279.05;1703570;83;21028;-77
2021/08/31 06:07:08;;;;;;;;;;;;;;;14.49;88.79;100283.37;1723254;83;22049;-77
2021/08/31 06:09:36;;;;;;;12.80;9.95;;;;;;;14.50;88.80;100277.49;1727812;83;26729;-77
2021/08/31 06:12:08;;;;;;;10.88;7.72;;;;;;;14.50;88.82;100296.28;1702737;83;21035;-77
2021/08/31 06:14:34;;;;;;;12.07;7.85;;;;;;;14.50;88.84;100282.34;1704023;83;21384;-77
2021/08/31 06:17:00;;;;;;;7.83;7.03;;;;;;;14.53;88.84;100280.31;1738531;82;21474;-77
2021/08/31 06:19:26;;;;;;;14.43;8.75;;;;;;;14.54;88.84;100284.13;1725159;82;21835;-77
2021/08/31 06:21:52;;;;;;;7.53;6.72;;;;;;;14.56;88.87;100280.75;1723551;82;20992;-77
2021/08/31 06:24:18;;;;;;;9.68;7.35;;;;;;;14.61;88.87;100276.11;1721340;82;20963;-77
2021/08/31 06:26:44;;;;;;;11.95;7.37;;;;;;;14.63;88.87;100281.61;1719469;82;21067;-77
2021/08/31 06:29:10;;;;;;;9.28;7.40;;;;;;;14.66;88.89;100278.52;1735778;82;21091;-77
2021/08/31 06:31:36;;;;;;;8.35;6.80;;;;;;;14.68;88.88;100278.30;1741351;82;21166;-77
2021/08/31 06:34:02;;;;;;;13.90;8.20;;;;;;;14.68;88.89;100272.94;1732948;82;21504;-77
2021/08/31 06:36:28;;;;;;;11.85;8.68;;;;;;;14.69;88.88;100277.29;1708243;83;21489;-77
2021/08/31 06:38:54;;;;;;;7.80;6.60;;;;;;;14.71;88.90;100277.91;1710019;83;21087;-77
2021/08/31 06:41:20;;;;;;;9.50;6.90;;;;;;;14.73;88.93;100275.87;1716226;83;21278;-77
2021/08/31 06:43:47;;;;;;;8.65;6.70;;;;;;;14.75;88.92;100277.82;1713058;83;21181;-77
2021/08/31 06:46:14;;;;;;;8.15;7.35;;;;;;;14.77;88.93;100289.21;1708174;83;21087;-77
2021/08/31 06:48:43;;;;;;;9.83;7.58;;;;;;;14.77;88.92;100286.52;1726651;83;21063;-77
2021/08/31 06:51:13;;;;;;;8.10;7.25;;;;;;;14.78;88.95;100288.16;1714429;83;21084;-77
2021/08/31 06:53:39;;;;;;;9.20;7.17;;;;;;;14.77;88.96;100294.06;1703496;83;21009;-77
2021/08/31 06:56:05;;;;;;;7.08;6.00;;;;;;;14.80;88.96;100294.17;1700429;83;21093;-77
2021/08/31 06:58:31;;;;;;;9.53;7.22;;;;;;;14.80;88.95;100295.52;1705255;83;21024;-77
2021/08/31 07:00:58;;;;;;;7.22;6.33;;;;;;;14.81;88.98;100290.47;1732811;82;21008;-77
2021/08/31 07:03:24;;;;;;;7.30;6.62;;;;;;;14.81;88.98;100301.21;1712546;82;21528;-77
2021/08/31 07:05:50;;;;;;;9.88;7.17;;;;;;;14.79;89.00;100294.69;1705194;82;21007;-77
2021/08/31 07:08:16;;;;;;;8.83;7.62;;;;;;;14.81;88.99;100294.50;1712104;82;21209;-77
2021/08/31 07:10:42;;;;;;;10.23;6.70;;;;;;;14.83;89.00;100304.52;1715877;82;21041;-77
2021/08/31 07:13:08;;;;;;;9.90;6.45;;;;;;;14.82;89.01;100300.99;1732988;82;21072;-77
2021/08/31 07:15:34;;;;;;;7.10;6.33;;;;;;;14.85;89.01;100305.13;1729267;82;21086;-77
2021/08/31 07:18:01;;;;;;;6.53;5.83;;;;;;;14.85;89.02;100303.78;1728106;82;21071;-77
2021/08/31 07:20:27;;;;;;;8.73;7.10;;;;;;;14.84;89.02;100304.83;1689842;83;21515;-77
2021/08/31 07:22:54;;;;;;;8.43;7.58;;;;;;;14.88;88.96;100309.58;1726018;82;21027;-78
2021/08/31 07:25:20;;;;;;;9.60;7.70;;;;;;;14.88;88.96;100309.58;1728020;82;21055;-77
2021/08/31 07:27:46;;;;;;;10.93;6.90;;;;;;;14.90;89.03;100305.37;1725079;82;20992;-78
2021/08/31 07:30:13;;;;;;;10.65;7.00;;;;;;;14.92;89.03;100308.16;1733313;82;21729;-78
2021/08/31 07:32:39;;;;;;;8.68;7.78;;;;;;;14.94;89.05;100307.97;1719946;82;21181;-78
2021/08/31 07:35:06;;;;;;;9.18;7.55;;;;;;;14.97;89.05;100308.91;1718546;82;20992;-78
2021/08/31 07:37:32;;;;;;;10.18;8.03;;;;;;;14.99;89.05;100310.87;1699836;83;21020;-78
2021/08/31 07:39:58;;;;;;;12.47;8.58;;;;;;;15.02;89.06;100311.84;1711475;83;21024;-78
2021/08/31 07:42:24;;;;;;;9.30;6.90;;;;;;;15.03;89.05;100314.81;1726826;82;20988;-78
2021/08/31 07:44:50;;;;;;;9.30;7.37;;;;;;;15.03;89.03;100313.47;1732610;82;21169;-78
2021/08/31 07:47:17;;;;;;;10.03;8.08;;;;;;;15.02;89.04;100315.86;1718526;82;21520;-78
2021/08/31 07:49:43;;;;;;;22.25;13.48;;;;;;;15.02;89.05;100316.38;1732917;82;21113;-78
2021/08/31 07:52:09;;;;;;;22.50;13.15;;;;;;;15.02;89.04;100319.06;1736854;82;20988;-78
2021/08/31 07:54:36;;;;;;;13.65;10.53;;;;;;;15.02;89.06;100319.06;1736170;82;21122;-78
2021/08/31 07:57:02;;;;;;;12.63;8.70;;;;;;;15.04;89.06;100320.51;1714729;83;21144;-77
2021/08/31 07:59:29;;;;;;;17.50;10.95;;;;;;;14.98;89.19;100307.89;1700134;83;21037;-77
2021/08/31 08:01:55;;;;;;;27.07;15.98;;;;;;;14.98;89.19;100307.89;1697916;83;21092;-77
2021/08/31 08:04:21;;;;;;;19.25;13.50;;;;;;;15.12;89.04;100323.54;1710697;83;20990;-77
2021/08/31 08:06:47;;;;;;;15.20;9.88;;;;;;;15.16;89.04;100322.94;1728277;82;21038;-77
2021/08/31 08:09:13;;;;;;;23.20;15.48;;;;;;;15.12;89.03;100319.00;1746844;82;21428;-78
2021/08/31 08:11:39;;;;;;;22.07;12.28;;;;;;;15.12;89.03;100319.00;1704451;83;21046;-77
2021/08/31 08:14:07;;;;;;;14.43;10.20;;;;;;;15.25;89.01;100332.47;1731985;82;21015;-77
2021/08/31 08:16:33;;;;;;;19.37;11.15;;;;;;;15.33;89.03;100325.58;1720668;82;21054;-77
2021/08/31 08:18:59;;;;;;;13.40;10.70;;;;;;;15.33;89.03;100325.58;1737744;82;21461;-77
2021/08/31 08:21:25;;;;;;;12.37;9.10;;;;;;;15.37;88.98;100332.72;1737347;82;21478;-77
2021/08/31 08:23:51;;;;;;;16.37;10.38;;;;;;;15.40;88.71;100333.14;1716615;82;21455;-77
2021/08/31 08:26:17;;;;;;;11.65;10.20;;;;;;;15.40;88.71;100333.14;1708739;83;21547;-77
2021/08/31 08:28:43;;;;;;;14.85;11.12;;;;;;;15.43;88.96;100332.73;1681759;84;21027;-77
2021/08/31 08:31:09;;;;;;;16.12;11.00;;;;;;;15.47;88.93;100328.61;1696141;84;21499;-77
2021/08/31 08:33:35;;;;;;;16.40;10.43;;;;;;;15.49;88.91;100329.25;1675485;84;21769;-77
2021/08/31 08:36:03;;;;;;;14.55;10.08;;;;;;;15.54;88.89;100327.83;1695839;84;21059;-77
2021/08/31 08:38:29;;;;;;;13.83;9.75;;;;;;;15.54;88.85;100338.06;1688647;84;21088;-77
2021/08/31 08:40:57;;;;;;;19.75;11.00;;;;;;;15.43;88.85;100330.05;1740948;82;21012;-77
2021/08/31 08:43:24;;;;;;;18.27;12.40;;;;;;;15.43;88.85;100330.05;1744128;82;21577;-77
2021/08/31 08:45:50;;;;;;;16.57;11.12;;;;;;;15.55;88.80;100342.93;1724223;82;21240;-77
2021/08/31 08:48:20;;;;;;;15.98;11.43;;;;;;;15.57;88.97;100343.54;1735323;82;21015;-77
2021/08/31 08:50:47;;;;;;;13.53;10.72;;;;;;;15.59;88.81;100326.68;1728411;82;21019;-77
2021/08/31 08:53:13;;;;;;;18.32;11.00;;;;;;;15.59;88.81;100326.68;1747806;82;21023;-77
2021/08/31 08:55:39;;;;;;;13.68;9.65;;;;;;;15.72;88.71;100341.00;1734615;82;20983;-77
2021/08/31 08:58:05;;;;;;;14.93;9.75;;;;;;;15.77;88.60;100330.95;1742325;82;21501;-77
2021/08/31 09:01:02;;;;;;;13.98;9.50;;;;;;;15.94;88.64;100345.66;1744329;82;21547;-77
2021/08/31 09:03:29;;;;;;;12.55;8.80;;;;;;;16.00;88.61;100347.54;1718523;82;21064;-77
2021/08/31 09:06:16;;;;;;;15.93;10.53;;;;;;;16.05;88.54;100353.11;1728898;82;21031;-77
2021/08/31 09:08:57;;;;;;;18.48;16.00;;;;;;;16.05;88.49;100355.80;1711148;82;21031;-77
2021/08/31 09:11:40;;;;;;;23.45;19.80;;;;;;;16.09;88.45;100357.05;1693158;83;21174;-77
2021/08/31 09:14:28;;;;;;;37.17;31.60;;;;;;;16.10;88.36;100357.38;1722801;82;21086;-76
2021/08/31 09:17:07;;;;;;;23.85;20.05;;;;;;;16.14;88.12;100368.03;1711253;83;21106;-77
2021/08/31 09:19:38;;;;;;;17.50;13.62;;;;;;;16.17;88.25;100370.31;1723010;82;20992;-77
2021/08/31 09:22:22;;;;;;;14.90;13.05;;;;;;;16.16;88.13;100365.13;1740456;82;21558;-77
2021/08/31 09:25:09;;;;;;;14.07;11.55;;;;;;;16.14;88.14;100372.07;1737284;82;21717;-77
2021/08/31 09:27:38;;;;;;;10.63;9.33;;;;;;;16.15;88.09;100365.63;1730972;82;21524;-77
2021/08/31 09:30:20;;;;;;;11.15;9.13;;;;;;;16.16;88.03;100367.81;1687650;83;21489;-77
2021/08/31 09:33:07;;;;;;;11.80;8.60;;;;;;;16.18;87.97;100379.21;1677446;84;21083;-77
2021/08/31 09:35:35;;;;;;;16.20;9.98;;;;;;;16.18;87.88;100366.59;1699800;84;21573;-77
2021/08/31 09:38:03;;;;;;;13.68;8.95;;;;;;;16.26;87.92;100370.40;1712136;83;21685;-78
2021/08/31 09:40:30;;;;;;;14.45;8.50;;;;;;;16.33;87.79;100375.77;1716842;82;21063;-77
2021/08/31 09:43:05;;;;;;;14.73;8.60;;;;;;;16.33;87.71;100372.57;1730827;82;21524;-77
2021/08/31 09:45:34;;;;;;;15.68;9.05;;;;;;;16.31;87.64;100381.89;1717346;82;21476;-77
2021/08/31 09:48:01;;;;;;;13.05;8.93;;;;;;;16.29;87.57;100378.59;1736743;82;21000;-77
2021/08/31 09:50:37;;;;;;;12.30;9.28;;;;;;;16.27;87.54;100376.09;1727687;82;21148;-77
2021/08/31 09:53:07;;;;;;;17.62;9.08;;;;;;;16.30;87.49;100383.75;1723019;82;21031;-76
2021/08/31 09:55:33;;;;;;;12.30;9.25;;;;;;;16.32;87.44;100383.05;1714041;82;21137;-77
2021/08/31 09:58:12;;;;;;;12.98;9.48;;;;;;;16.38;87.44;100374.65;1728675;82;21036;-77
2021/08/31 10:00:40;;;;;;;12.85;9.75;;;;;;;16.40;87.39;100382.81;1696216;83;21046;-77
2021/08/31 10:03:06;;;;;;;12.53;10.20;;;;;;;16.43;87.32;100379.70;1727517;82;21131;-77
2021/08/31 10:05:33;;;;;;;12.18;8.85;;;;;;;16.45;87.24;100383.03;1727061;83;21014;-77
2021/08/31 10:08:01;;;;;;;12.50;9.13;;;;;;;16.49;87.24;100391.01;1735182;82;21546;-77
2021/08/31 10:10:29;;;;;;;15.48;9.23;;;;;;;16.57;87.15;100386.48;1727707;83;21038;-78
2021/08/31 10:12:55;;;;;;;13.13;7.75;;;;;;;16.64;87.07;100394.03;1735361;82;21006;-77
2021/08/31 10:15:21;;;;;;;13.15;8.88;;;;;;;16.66;87.00;100383.34;1709341;83;21156;-77
2021/08/31 10:17:51;;;;;;;11.90;8.70;;;;;;;16.62;86.87;100389.35;1705871;84;21101;-77
2021/08/31 10:20:23;;;;;;;11.53;7.87;;;;;;;16.59;86.80;100397.34;1698508;84;21058;-77
2021/08/31 10:22:49;;;;;;;18.00;9.20;;;;;;;16.59;86.72;100395.16;1705679;84;21042;-77
2021/08/31 10:25:22;;;;;;;12.15;8.50;;;;;;;16.61;86.67;100399.80;1698561;84;21026;-77
2021/08/31 10:27:49;;;;;;;10.08;7.45;;;;;;;16.64;86.61;100396.72;1705475;84;21512;-77
2021/08/31 10:30:20;;;;;;;12.70;8.58;;;;;;;16.69;86.48;100403.63;1698632;84;21053;-77
2021/08/31 10:32:54;;;;;;;10.08;7.72;;;;;;;16.72;86.41;100412.12;1706728;82;21076;-77
2021/08/31 10:35:39;;;;;;;11.35;8.18;;;;;;;16.75;86.32;100411.70;1698270;84;20995;-77
2021/08/31 10:38:11;;;;;;;16.40;7.85;;;;;;;16.76;86.20;100409.84;1708684;83;21039;-77
2021/08/31 10:40:42;;;;;;;12.05;7.92;;;;;;;16.71;86.08;100408.31;1703437;83;21164;-77
2021/08/31 10:43:12;;;;;;;13.25;8.23;;;;;;;16.62;85.97;100409.03;1726212;83;21090;-77
2021/08/31 10:45:52;;;;;;;;;;;;;;;16.56;85.92;100419.81;1727632;83;21083;-77
2021/08/31 10:48:27;;;;;;;12.43;8.65;;;;;;;16.57;85.87;100423.63;1707295;82;20452;-77
2021/08/31 10:51:03;;;;;;;13.68;9.45;;;;;;;16.68;85.81;100419.47;1698613;83;21007;-76
2021/08/31 10:53:47;;;;;;;14.87;9.98;;;;;;;16.86;85.75;100429.09;1725285;81;21365;-77
2021/08/31 10:56:27;;;;;;;13.50;8.43;;;;;;;17.05;85.67;100430.09;1698385;84;21050;-77
2021/08/31 10:58:59;;;;;;;12.13;8.10;;;;;;;17.15;85.59;100417.84;1699256;83;21474;-77
2021/08/31 11:01:41;;;;;;;13.88;8.48;;;;;;;17.16;85.48;100423.55;1698648;84;21562;-77
2021/08/31 11:04:30;;;;;;;13.93;9.00;;;;;;;17.13;85.41;100422.63;1681099;84;21014;-77
2021/08/31 11:06:59;;;;;;;12.35;9.38;;;;;;;17.11;85.34;100434.12;1672937;83;21787;-78
2021/08/31 11:09:26;;;;;;;18.27;11.33;;;;;;;17.11;85.27;100427.37;1707823;83;21517;-78
2021/08/31 11:12:10;;;;;;;11.83;8.00;;;;;;;17.10;85.18;100425.72;1729016;82;21074;-79
2021/08/31 11:14:46;;;;;;;13.55;8.65;;;;;;;17.12;85.14;100433.60;1673450;85;21038;-79
2021/08/31 11:17:36;;;;;;;11.12;9.05;;;;;;;17.17;85.04;100431.11;1727849;82;20994;-79
2021/08/31 11:20:16;;;;;;;;;;;;;;;17.22;84.94;100426.73;1737069;82;21088;-79
2021/08/31 11:22:44;;;;;;;15.85;9.55;;;;;;;17.29;84.84;100423.49;1702509;83;20209;-78
2021/08/31 11:25:10;;;;;;;12.43;8.75;;;;;;;17.33;84.75;100430.12;1710670;81;21058;-78